Glenbrook, Connecticut
Current Conditions -  °F | °C
As of 7:56 AM on Friday 28 Nov 2014 (Local Time) from KHPN Reporting Station
Few Clouds Few Clouds  
Wind Chill: 21°   Ceiling: Unl
Heat Index: 30°   Visibility: 10mi
Dew Point: 22°   Wind: 10mph
Humidity: 72%   Direction: 320°NW
Pressure: 30.11"   Gusts: NA
Location:  41.0697°N, 73.522°W
Report Text: KHPN 281256Z 32009KT 10SM FEW009 M01/M06 A3011 RMK AO2 SLP204 T10111056
Loading
Personal Weather Stations






























Interactive Weather Map New forecast layout! Learn more

10-Day Weather Forecast

Advertisements
Track Severe Weather on mobile